Date,TemperatureHighF,TemperatureAvgF,TemperatureLowF,DewpointHighF,DewpointAvgF,DewpointLowF,HumidityHigh,HumidityAvg,HumidityLow,PressureMaxIn,PressureMinIn,WindSpeedMaxMPH,WindSpeedAvgMPH,GustSpeedMaxMPH,PrecipitationSumIn
2014-3-1,73.8,55.9,40.5,57.7,44.0,36.6,89,69,32,30.26,30.11,0,0,0,0.00
2014-3-2,82.9,64.1,51.1,60.1,51.8,47.0,90,68,33,30.30,30.06,0,0,0,0.00
2014-3-3,83.1,66.4,51.8,64.0,55.1,48.1,88,70,38,30.11,29.97,0,0,0,0.00
2014-3-4,79.7,68.5,60.8,64.7,60.7,56.0,87,77,56,30.08,29.94,0,0,0,0.00
2014-3-5,76.1,64.1,58.6,61.5,57.3,54.5,87,79,59,30.11,29.94,8,0,24,0.00
2014-3-6,68.5,62.9,59.4,63.3,57.8,55.4,87,83,79,30.08,29.72,7,2,9,0.08
2014-3-7,62.6,55.6,46.2,57.0,49.3,39.7,86,80,70,30.07,29.81,9,3,9,0.00
2014-3-8,72.5,54.5,38.5,49.5,43.2,34.4,88,69,38,30.22,29.54,10,6,159,0.00
2014-3-9,78.6,60.9,46.8,55.8,48.3,43.1,87,67,36,30.22,30.04,10,1,10,0.00
2014-3-10,79.2,62.4,49.8,56.8,49.7,46.1,89,67,33,30.21,29.93,0,0,0,0.00
2014-3-11,81.1,63.6,48.7,63.0,51.5,45.0,91,69,33,30.05,29.84,13,0,13,0.00
2014-3-12,79.9,69.7,62.6,69.9,62.6,56.0,89,79,51,29.91,29.70,22,2,22,0.00
2014-3-13,69.1,58.7,47.3,61.2,39.7,28.8,86,53,23,30.24,29.88,22,4,22,0.00
2014-3-14,76.5,57.1,37.9,49.9,42.1,33.8,88,62,33,30.32,30.15,16,1,16,0.00
2014-3-15,82.6,63.8,47.7,58.5,49.3,44.0,89,64,31,30.26,30.00,0,0,0,0.00
2014-3-16,86.4,69.5,55.4,63.7,57.0,51.1,90,68,40,30.09,29.73,17,2,17,0.00
2014-3-17,73.2,70.7,68.0,68.4,64.6,61.4,88,81,75,29.79,29.65,0,0,0,0.00
2014-3-18,73.8,65.8,55.2,64.0,54.7,48.4,88,70,43,30.10,29.65,8,0,7,0.00
2014-3-19,78.4,65.6,52.9,58.5,53.7,49.6,90,69,45,30.19,30.01,11,0,10,0.00
2014-3-20,82.0,72.3,60.3,58.8,54.1,53.0,86,54,41,30.16,29.95,4,0,5,0.00
2014-3-21,84.7,69.3,56.3,66.7,55.5,50.1,90,66,34,30.16,29.99,0,0,0,0.00
2014-3-22,84.2,71.3,62.4,67.1,58.0,48.9,88,66,37,30.13,29.95,12,0,12,0.00
2014-3-23,82.4,70.9,63.5,69.1,64.0,58.6,88,79,61,30.10,29.93,17,0,17,0.00
2014-3-24,73.0,67.8,61.5,64.7,60.8,56.3,88,79,65,30.13,29.95,9,0,9,0.00
2014-3-25,73.6,63.5,55.0,61.9,51.4,31.8,87,68,34,30.09,29.86,21,1,21,0.00
2014-3-26,64.2,53.8,43.7,33.4,24.5,17.8,50,33,21,30.36,30.06,16,1,16,0.00
2014-3-27,70.0,58.9,47.5,55.5,47.2,30.9,79,66,47,30.36,30.24,7,2,7,0.00
2014-3-28,81.1,69.8,59.0,64.5,59.5,54.8,88,72,45,30.27,30.00,11,2,11,0.00
2014-3-29,71.8,68.9,65.8,65.8,63.2,59.7,88,82,77,30.06,29.95,7,0,7,0.00
2014-3-30,74.5,62.7,51.6,61.5,50.1,39.6,88,68,30,30.09,30.00,2,0,3,0.00
2014-3-31,77.0,60.0,47.1,55.5,45.9,40.1,89,65,28,30.21,30.09,0,0,0,0.00